Falls City, NE

6:10 PM CST on February 07, 2016 (GMT -0600)
Brenner | | Change Station
CLOSE
Current Station
Airport
Location: Falls City,
Elevation: 984 ft
Nearby Weather Stations

Elev 984 ft 40.08 °N, 95.59 °W | Updated 17 minutes ago

Overcast
Overcast
38 °F
Feels Like 26 °F
N
28
Wind Variable Wind from WNW
Gusts 36 mph

Today
High -- | Low -- °F
--% Chance of Precip.
Yesterday
High -- | Low -- °F
Precip. -- in
Pressure 30.04 in
Visibility 10.0 miles
Clouds Few 3000 ft
Mostly Cloudy 5000 ft
Overcast 9000 ft
Windchill 26 °F
Dew Point 28 °F
Humidity 68%
Rainfall 0.00 in
Snow Depth Not available.
7:25 AM 5:48 PM
Waning Crescent, 1% visible
METAR KFNB 072353Z AUTO 30024G31KT 10SM FEW030 BKN050 OVC090 03/M02 A3002 RMK AO2 PK WND 32038/2319 RAB20E35 SLP173 P0000 60000 T00331022 10100 20033 53010
Pressure 30.04 in
Visibility 10.0 miles
Clouds Few 3000 ft
Mostly Cloudy 5000 ft
Overcast 9000 ft
Windchill 26 °F
Dew Point 28 °F
Humidity 68%
Rainfall 0.00 in
Snow Depth Not available.
7:25 AM 5:48 PM
Waning Crescent, 1% visible
METAR KFNB 072353Z AUTO 30024G31KT 10SM FEW030 BKN050 OVC090 03/M02 A3002 RMK AO2 PK WND 32038/2319 RAB20E35 SLP173 P0000 60000 T00331022 10100 20033 53010

10-Day Weather Forecast

Almanac

Astronomy

Feb. 07, 2016 Rise Set
Actual Time
Civil Twilight
Nautical Twilight
Astronomical Twilight
Moon
Length of Visible Light
Length of Day
Tomorrow will be .
, % of the Moon is Illuminated

Today's Extremes

State Highs State Lows

Community

WunderPhotos

Upload Photos

1,891,334 photos uploaded!

WunderBlog® & News

Nearby

Air Quality

  Air Quality AQ Index Pollutant
Not available.

Snow Depth

Station Depth Elevation

Earthquake Activity

City Distance Mag. Time & Date
Minimum magnitude displayed is 2.5.

Coastal Water Temperatures

Place Temperature

Stations

Nearby Weather Stations

Station Location Temp. Windchill Dew Point Humidity Wind Precip. Elev Updated Type
                   

Watches & Warnings

Wind Advisory
Issued: 3:09 PM CST Feb. 7, 2016 – National Weather Service

... Wind Advisory in effect from 3 am to 5 PM CST Monday...

The National Weather Service in Omaha/valley has issued a Wind
Advisory... which is in effect from 3 am to 5 PM CST Monday.

* Timing... strong northwest winds will continue through Monday
afternoon.

* Winds... northwest winds of 30 to 40 mph with gusts to 50 mph.

* Impacts... winds of this magnitude will be hazardous to
motorists... especially those with high profile vehicles. In
addition... snow showers this evening and overnight may lead to
areas of blowing snow. This may create hazardous travel
conditions across the area.


Precautionary/preparedness actions...

A Wind Advisory means that sustained wind speeds between 30 to
39 mph or gusts between 45 to 57 mph are expected. Winds this
strong can make driving difficult... especially for high profile
vehicles. Use extra caution.